Flight Track Log - Related Links

Times and Time Zones

All times are in EDT time to prevent confusion due to time zone crossing. See the EGF3318 flight status page for this flight to view local times or setup timezone preferences in your user account.

Time Position Orientation Groundspeed Altitude Reporting Facility
EDT Latitude Longitude Course Direction KTS MPH feet Rate Location/Type
Fri 05:41:15 PM 42.0167 -87.8667 66° East 168 193 2,200  Level Chicago TRACON
Fri 05:42:21 PM 42.0333 -87.7833 75° East 220 253 4,400 1,988 Climbing Chicago TRACON
Fri 05:43:00 PM 42.0973 -87.5352 59° Northeast  Level FlightAware Approximate
Fri 05:44:00 PM 42.1504 -87.4156 66° East  Level FlightAware Approximate
Fri 05:44:07 PM 42.0861 -87.6275 65° Northeast 270 311 7,900  Level Chicago Center
Fri 05:45:00 PM 42.1928 -87.2884 66° East  Level FlightAware Approximate
Fri 05:45:09 PM 42.1189 -87.5311 65° Northeast 283 326 9,800  Level Chicago Center
Fri 05:46:00 PM 42.2352 -87.1611 66° East  Level FlightAware Approximate
Fri 05:46:11 PM 42.1544 -87.4286 65° Northeast 301 346 11,500  Level Chicago Center
Fri 05:47:13 PM 42.1658 -87.3086 83° East 323 372 12,900 1,306 Climbing Chicago Center
Fri 05:48:15 PM 42.1756 -87.1786 84° East 344 396 14,200 1,548 Climbing Chicago Center
Fri 05:49:17 PM 42.1833 -87.0197 86° East 353 406 16,100 1,403 Climbing Chicago Center
Fri 05:50:19 PM 42.1936 -86.8858 84° East 360 414 17,100 912 Climbing Chicago Center
Fri 05:51:22 PM 42.2028 -86.7461 85° East 374 430 18,000 912 Climbing Chicago Center
Fri 05:52:24 PM 42.2114 -86.6086 85° East 385 443 19,000 1,016 Climbing Chicago Center
Fri 05:53:26 PM 42.2200 -86.4606 85° East 393 452 20,100 1,113 Climbing Chicago Center
Fri 05:54:28 PM 42.2308 -86.2794 85° East 403 464 21,300 1,113 Climbing Chicago Center
Fri 05:55:30 PM 42.2414 -86.1225 85° East 415 478 22,400 1,065 Climbing Chicago Center
Fri 05:56:32 PM 42.2494 -85.9675 86° East 414 476 23,500 1,016 Climbing Chicago Center
Fri 05:57:34 PM 42.2581 -85.8256 85° East 416 479 24,500 1,355 Climbing Chicago Center
Fri 05:58:36 PM 42.2672 -85.6411 86° East 415 478 26,300 1,645 Climbing Chicago Center
Fri 05:59:38 PM 42.2761 -85.4892 85° East 411 473 27,900 1,500 Climbing Chicago Center
Fri 06:00:40 PM 42.2836 -85.3425 86° East 401 461 29,400 1,452 Climbing Chicago Center
Fri 06:01:42 PM 42.2917 -85.1994 86° East 390 449 30,900 1,452 Climbing Chicago Center
Fri 06:02:44 PM 42.2989 -85.0600 86° East 380 437 32,400 1,355 Climbing Chicago Center
Fri 06:03:46 PM 42.2972 -84.8892 91° East 380 437 33,700 1,104 Climbing Chicago Center
Fri 06:04:49 PM 42.2928 -84.7442 92° East 385 443 34,700 624 Climbing Chicago Center
Fri 06:05:51 PM 42.2894 -84.5975 92° East 390 449 35,000 146 Climbing Chicago Center
Fri 06:06:52 PM 42.2881 -84.4425 91° East 408 470 35,000  Level Chicago Center
Fri 06:07:45 PM 42.3061 -84.3036 80° East 407 468 35,000  Level Cleveland Center
Fri 06:08:45 PM 42.3300 -84.1475 78° East 412 474 35,000  Level Cleveland Center
Fri 06:09:45 PM 42.3533 -83.9944 78° East 417 480 35,000  Level Cleveland Center
Fri 06:10:45 PM 42.3747 -83.8325 80° East 422 486 35,000  Level Cleveland Center
Fri 06:11:45 PM 42.3978 -83.6789 78° East 428 493 35,000  Level Cleveland Center
Fri 06:12:45 PM 42.4128 -83.5025 83° East 428 493 35,000  Level Cleveland Center
Fri 06:13:45 PM 42.4269 -83.3456 83° East 430 495 35,000  Level Cleveland Center
Fri 06:14:45 PM 42.4456 -83.1803 81° East 430 495 35,000  Level Cleveland Center
Fri 06:15:45 PM 42.4614 -83.0206 82° East 422 486 35,000  Level Cleveland Center
Fri 06:16:45 PM 42.4772 -82.8606 82° East 422 486 35,000  Level Cleveland Center
Fri 06:17:45 PM 42.4906 -82.7036 83° East 427 491 35,000  Level Cleveland Center
Fri 06:18:45 PM 42.5058 -82.5461 82° East 427 491 35,000  Level Cleveland Center
Fri 06:19:45 PM 42.5211 -82.3833 83° East 427 491 35,000  Level Cleveland Center
Fri 06:20:45 PM 42.5358 -82.2289 83° East 422 486 35,000  Level Cleveland Center
Fri 06:21:45 PM 42.5506 -82.0686 83° East 422 486 35,000  Level Cleveland Center
Fri 06:22:45 PM 42.5650 -81.9108 83° East 422 486 35,000  Level Cleveland Center
Fri 06:23:45 PM 42.5792 -81.7533 83° East 427 491 35,000  Level Cleveland Center
Fri 06:24:45 PM 42.5933 -81.5900 83° East 427 491 35,000  Level Cleveland Center
Fri 06:25:45 PM 42.6072 -81.4294 83° East 427 491 35,000  Level Cleveland Center
Fri 06:26:45 PM 42.6208 -81.2717 83° East 427 491 35,000  Level Cleveland Center
Fri 06:27:45 PM 42.6342 -81.1108 84° East 420 483 35,000  Level Cleveland Center
Fri 06:28:45 PM 42.6472 -80.9531 84° East 420 483 35,000  Level Cleveland Center
Fri 06:29:45 PM 42.6581 -80.7978 85° East 420 483 35,000  Level Cleveland Center
Fri 06:30:45 PM 42.6728 -80.6425 83° East 420 483 35,000  Level Cleveland Center
Fri 06:31:45 PM 42.6833 -80.5069 84° East 415 478 35,000  Level Cleveland Center
Fri 06:32:45 PM 42.6933 -80.3486 85° East 415 478 35,000  Level Cleveland Center
Fri 06:33:45 PM 42.7056 -80.1989 84° East 410 472 35,000  Level Cleveland Center
Fri 06:34:45 PM 42.7153 -80.0436 85° East 400 460 35,000 -300 Level Cleveland Center
Fri 06:35:45 PM 42.7269 -79.8881 84° East 405 466 34,400 -750 Descending Cleveland Center
Fri 06:36:45 PM 42.7406 -79.7267 83° East 411 473 33,500 -1,450 Descending Cleveland Center
Fri 06:37:45 PM 42.7517 -79.5625 85° East 422 486 31,500 -1,750 Descending Cleveland Center
Fri 06:38:45 PM 42.7647 -79.3956 84° East 433 498 30,000 -1,200 Descending Cleveland Center
Fri 06:39:45 PM 42.7733 -79.2339 86° East 433 498 29,100 -500 Descending Cleveland Center
Fri 06:40:45 PM 42.7819 -79.0839 85° East 421 484 29,000 -550 Descending Cleveland Center
Fri 06:41:45 PM 42.7922 -78.9336 85° East 406 467 28,000 -1,000 Descending Cleveland Center
Fri 06:42:45 PM 42.8006 -78.7892 85° East 395 455 27,000 -1,200 Descending Cleveland Center
Fri 06:43:45 PM 42.8086 -78.6447 86° East 389 448 25,600 -1,450 Descending Cleveland Center
Fri 06:44:45 PM 42.8167 -78.5028 86° East 384 442 24,100 -1,450 Descending Cleveland Center
Fri 06:45:45 PM 42.8244 -78.3639 86° East 379 436 22,700 -1,350 Descending Cleveland Center
Fri 06:46:45 PM 42.8342 -78.2164 85° East 379 436 21,400 -850 Descending Cleveland Center
Fri 06:47:45 PM 42.8414 -78.0631 86° East 391 450 21,000 -300 Descending Cleveland Center
Fri 06:48:45 PM 42.8503 -77.9097 85° East 397 457 20,800 -550 Descending Cleveland Center
Fri 06:49:45 PM 42.8572 -77.7622 86° East 397 457 19,900 -950 Descending Cleveland Center
Fri 06:50:45 PM 42.8656 -77.5975 86° East 397 457 18,900 -950 Descending Cleveland Center
Fri 06:51:45 PM 42.8722 -77.4528 86° East 391 450 18,000 -1,400 Descending Cleveland Center
Fri 06:52:45 PM 42.8786 -77.3078 87° East 386 444 16,100 -1,598 Descending Cleveland Center
Fri 06:55:04 PM 42.9011 -76.9986 84° East 350 403 12,700 -1,430 Descending Boston Center
Fri 06:55:58 PM 42.9281 -76.8956 70° East 339 390 11,500 -879 Descending Boston Center
Fri 06:57:00 PM 42.9581 -76.7700 72° East 326 375 11,000 -850 Descending Boston Center
Fri 06:57:58 PM 42.9828 -76.6667 72° East 278 320 9,800 -1,361 Descending Boston Center
Fri 06:58:59 PM 43.0072 -76.5661 72° East 278 320 8,300 -1,597 Descending Boston Center
Fri 07:00:02 PM 43.0294 -76.4681 73° East 272 313 6,500 -1,688 Descending Boston Center
Fri 07:01:07 PM 43.0664 -76.3653 64° Northeast 252 290 4,700 -1,714 Descending Boston Center
Fri 07:02:01 PM 43.0894 -76.2986 65° Northeast 237 273 3,100 -1,431 Descending Boston Center
Fri 07:02:56 PM 43.1044 -76.2314 73° East 188 216 2,100 -1,033 Descending Boston Center
Fri 07:04:03 PM 43.1064 -76.1658 88° East 134 154 1,000 -985 Descending Boston Center

Login

Don't have an account? Register now (free) for customized features, flight alerts, and more!